createdAt,value
2017-06-26T00:00:26.125Z,0
2017-06-26T00:01:26.109Z,0
2017-06-26T00:02:26.458Z,0
2017-06-26T00:03:26.397Z,0
2017-06-26T00:04:26.387Z,0
2017-06-26T00:05:26.377Z,0
2017-06-26T00:06:26.677Z,0
2017-06-26T00:07:26.043Z,0
2017-06-26T00:08:26.700Z,0
2017-06-26T00:09:26.021Z,0
2017-06-26T00:10:26.006Z,0
2017-06-26T00:11:26.623Z,0
2017-06-26T00:12:26.614Z,0
2017-06-26T00:13:26.598Z,0
2017-06-26T00:14:26.272Z,0
2017-06-26T00:15:26.578Z,0
2017-06-26T00:16:26.286Z,0
2017-06-26T00:17:25.931Z,0
2017-06-26T00:18:26.234Z,0
2017-06-26T00:19:25.598Z,0
2017-06-26T00:20:26.522Z,0
2017-06-26T00:21:25.881Z,0
2017-06-26T00:22:26.203Z,0
2017-06-26T00:23:26.497Z,0
2017-06-26T00:24:26.484Z,0
2017-06-26T00:25:26.485Z,0
2017-06-26T00:26:25.834Z,0
2017-06-26T00:27:26.134Z,0
2017-06-26T00:28:25.868Z,0
2017-06-26T00:29:25.796Z,0
2017-06-26T00:30:25.785Z,0
2017-06-26T00:31:25.779Z,0
2017-06-26T00:32:25.769Z,0
2017-06-26T00:33:25.761Z,0
2017-06-26T00:34:25.432Z,0
2017-06-26T00:35:26.049Z,0
2017-06-26T00:36:25.721Z,0
2017-06-26T00:37:26.020Z,0
2017-06-26T00:38:26.326Z,0
2017-06-26T00:39:25.688Z,0
2017-06-26T00:40:25.990Z,0
2017-06-26T00:41:26.297Z,0
2017-06-26T00:42:25.971Z,0
2017-06-26T00:43:25.655Z,0
2017-06-26T00:44:25.950Z,0
2017-06-26T00:45:25.939Z,0
2017-06-26T00:46:26.242Z,0
2017-06-26T00:47:25.911Z,0
2017-06-26T00:48:25.595Z,0
2017-06-26T00:49:25.893Z,0
2017-06-26T00:50:25.260Z,0
2017-06-26T00:51:25.874Z,0
2017-06-26T00:52:25.865Z,0
2017-06-26T00:53:25.585Z,0
2017-06-26T00:54:25.583Z,0
2017-06-26T00:55:25.834Z,0
2017-06-26T00:56:25.200Z,0
2017-06-26T00:57:25.809Z,0
2017-06-26T00:58:25.170Z,0
2017-06-26T00:59:25.187Z,0
2017-06-26T01:00:25.781Z,0
2017-06-26T01:01:25.142Z,0
2017-06-26T01:02:25.753Z,0
2017-06-26T01:03:25.746Z,0
2017-06-26T01:04:25.725Z,0
2017-06-26T01:05:26.040Z,0
2017-06-26T01:06:25.714Z,0
2017-06-26T01:07:25.715Z,0
2017-06-26T01:08:25.084Z,0
2017-06-26T01:09:25.364Z,0
2017-06-26T01:10:25.360Z,0
2017-06-26T01:11:25.660Z,0
2017-06-26T01:12:25.958Z,0
2017-06-26T01:13:25.638Z,0
2017-06-26T01:14:25.006Z,0
2017-06-26T01:15:25.316Z,0
2017-06-26T01:16:25.600Z,0
2017-06-26T01:17:25.278Z,0
2017-06-26T01:18:25.274Z,0
2017-06-26T01:19:25.256Z,0
2017-06-26T01:20:25.558Z,0
2017-06-26T01:21:24.926Z,0
2017-06-26T01:22:25.278Z,0
2017-06-26T01:23:25.533Z,0
2017-06-26T01:24:24.904Z,0
2017-06-26T01:25:25.513Z,0
2017-06-26T01:26:25.500Z,0
2017-06-26T01:27:25.802Z,0
2017-06-26T01:28:24.852Z,0
2017-06-26T01:29:25.461Z,0
2017-06-26T01:30:24.832Z,0
2017-06-26T01:31:25.450Z,0
2017-06-26T01:32:25.440Z,0
2017-06-26T01:33:25.749Z,0
2017-06-26T01:34:25.099Z,0
2017-06-26T01:35:25.405Z,0
2017-06-26T01:36:25.705Z,0
2017-06-26T01:37:25.062Z,0
2017-06-26T01:38:25.055Z,0
2017-06-26T01:39:26.272Z,0
2017-06-26T01:40:25.347Z,0
2017-06-26T01:41:25.337Z,0
2017-06-26T01:42:25.325Z,0
2017-06-26T01:43:25.626Z,0
2017-06-26T01:44:25.304Z,0
2017-06-26T01:45:24.680Z,0
2017-06-26T01:46:25.283Z,0
2017-06-26T01:47:24.645Z,0
2017-06-26T01:48:25.266Z,0
2017-06-26T01:49:25.245Z,0
2017-06-26T01:50:25.246Z,0
2017-06-26T01:51:24.922Z,0
2017-06-26T01:52:24.906Z,0
2017-06-26T01:53:24.918Z,0
2017-06-26T01:54:24.880Z,0
2017-06-26T01:55:25.504Z,0
2017-06-26T01:56:25.179Z,0
2017-06-26T01:57:25.166Z,0
2017-06-26T01:58:24.843Z,0
2017-06-26T01:59:25.146Z,0
2017-06-26T02:00:25.455Z,0
2017-06-26T02:01:24.506Z,0
2017-06-26T02:02:25.121Z,0
2017-06-26T02:03:25.420Z,0
2017-06-26T02:04:24.775Z,0
2017-06-26T02:05:25.078Z,0
2017-06-26T02:06:24.764Z,0
2017-06-26T02:07:24.434Z,0
2017-06-26T02:08:24.736Z,0
2017-06-26T02:09:25.036Z,0
2017-06-26T02:10:24.718Z,0
2017-06-26T02:11:24.397Z,0
2017-06-26T02:12:25.321Z,0
2017-06-26T02:13:24.694Z,0
2017-06-26T02:14:24.987Z,0
2017-06-26T02:15:24.346Z,0
2017-06-26T02:16:25.280Z,0
2017-06-26T02:17:24.953Z,0
2017-06-26T02:18:25.259Z,0
2017-06-26T02:19:24.312Z,0
2017-06-26T02:20:24.919Z,0
2017-06-26T02:21:24.593Z,0
2017-06-26T02:22:24.592Z,0
2017-06-26T02:23:24.896Z,0
2017-06-26T02:24:24.259Z,0
2017-06-26T02:25:24.247Z,0
2017-06-26T02:26:24.232Z,0
2017-06-26T02:27:24.287Z,0
2017-06-26T02:28:24.525Z,0
2017-06-26T02:29:25.134Z,0
2017-06-26T02:30:24.815Z,0
2017-06-26T02:31:24.496Z,0
2017-06-26T02:32:24.172Z,0
2017-06-26T02:33:24.483Z,0
2017-06-26T02:34:24.465Z,0
2017-06-26T02:35:24.446Z,0
2017-06-26T02:36:24.441Z,0
2017-06-26T02:37:24.744Z,0
2017-06-26T02:38:24.418Z,0
2017-06-26T02:39:24.717Z,0
2017-06-26T02:40:24.396Z,0
2017-06-26T02:41:24.074Z,0
2017-06-26T02:42:24.693Z,0
2017-06-26T02:43:24.674Z,0
2017-06-26T02:44:24.661Z,0
2017-06-26T02:45:24.655Z,0
2017-06-26T02:46:24.328Z,0
2017-06-26T02:47:24.321Z,0
2017-06-26T02:48:24.623Z,0
2017-06-26T02:49:24.298Z,0
2017-06-26T02:50:24.290Z,0
2017-06-26T02:51:24.589Z,0
2017-06-26T02:52:24.895Z,0
2017-06-26T02:53:24.877Z,0
2017-06-26T02:54:23.934Z,0
2017-06-26T02:55:24.237Z,0
2017-06-26T02:56:24.547Z,0
2017-06-26T02:57:24.264Z,0
2017-06-26T02:58:23.887Z,0
2017-06-26T02:59:24.503Z,0
2017-06-26T03:00:24.186Z,0
2017-06-26T03:01:24.167Z,0
2017-06-26T03:02:24.789Z,0
2017-06-26T03:03:24.475Z,0
2017-06-26T03:04:24.136Z,0
2017-06-26T03:05:24.444Z,0
2017-06-26T03:06:24.431Z,0
2017-06-26T03:07:24.749Z,0
2017-06-26T03:08:24.410Z,0
2017-06-26T03:09:24.395Z,0
2017-06-26T03:10:24.125Z,0
2017-06-26T03:11:24.067Z,0
2017-06-26T03:12:24.672Z,0
2017-06-26T03:13:24.665Z,0
2017-06-26T03:14:24.348Z,0
2017-06-26T03:15:24.351Z,0
2017-06-26T03:16:23.695Z,0
2017-06-26T03:17:24.321Z,0
2017-06-26T03:18:24.035Z,0
2017-06-26T03:19:24.598Z,0
2017-06-26T03:20:24.284Z,0
2017-06-26T03:21:24.271Z,0
2017-06-26T03:22:24.573Z,0
2017-06-26T03:23:23.939Z,0
2017-06-26T03:24:23.624Z,5
2017-06-26T03:25:23.918Z,5
2017-06-26T03:26:23.903Z,5
2017-06-26T03:27:23.587Z,5
2017-06-26T03:28:24.198Z,5
2017-06-26T03:29:24.494Z,5
2017-06-26T03:30:24.170Z,5
2017-06-26T03:31:24.187Z,5
2017-06-26T03:32:24.158Z,5
2017-06-26T03:33:24.141Z,5
2017-06-26T03:34:24.128Z,5
2017-06-26T03:35:24.433Z,5
2017-06-26T03:36:23.800Z,5
2017-06-26T03:37:24.415Z,5
2017-06-26T03:38:24.094Z,5
2017-06-26T03:39:24.082Z,5
2017-06-26T03:40:24.070Z,5
2017-06-26T03:41:23.743Z,5
2017-06-26T03:42:23.734Z,5
2017-06-26T03:43:24.039Z,5
2017-06-26T03:44:23.712Z,5
2017-06-26T03:45:24.013Z,5
2017-06-26T03:46:24.008Z,5
2017-06-26T03:47:23.993Z,5
2017-06-26T03:48:24.294Z,10
2017-06-26T03:49:23.658Z,5
2017-06-26T03:50:23.646Z,10
2017-06-26T03:51:24.003Z,10
2017-06-26T03:52:24.259Z,15
2017-06-26T03:53:23.996Z,15
2017-06-26T03:54:23.925Z,15
2017-06-26T03:55:23.908Z,15
2017-06-26T03:56:23.901Z,20
2017-06-26T03:57:23.884Z,20
2017-06-26T03:58:23.259Z,20
2017-06-26T03:59:23.553Z,15
2017-06-26T04:00:23.545Z,15
2017-06-26T04:01:23.221Z,15
2017-06-26T04:02:23.828Z,15
2017-06-26T04:03:22.886Z,15
2017-06-26T04:04:23.813Z,15
2017-06-26T04:05:23.486Z,20
2017-06-26T04:06:23.835Z,20
2017-06-26T04:07:23.782Z,20
2017-06-26T04:08:23.141Z,20
2017-06-26T04:09:23.444Z,25
2017-06-26T04:10:23.746Z,25
2017-06-26T04:11:23.422Z,25
2017-06-26T04:12:24.040Z,25
2017-06-26T04:13:24.030Z,25
2017-06-26T04:14:23.398Z,25
2017-06-26T04:15:23.380Z,25
2017-06-26T04:16:23.681Z,20
2017-06-26T04:17:23.981Z,20
2017-06-26T04:18:23.357Z,20
2017-06-26T04:19:23.342Z,15
2017-06-26T04:20:23.327Z,15
2017-06-26T04:21:23.313Z,15
2017-06-26T04:22:23.620Z,15
2017-06-26T04:23:23.305Z,15
2017-06-26T04:24:23.595Z,10
2017-06-26T04:25:23.270Z,10
2017-06-26T04:26:23.889Z,10
2017-06-26T04:27:23.253Z,10
2017-06-26T04:28:23.562Z,10
2017-06-26T04:29:23.550Z,15
2017-06-26T04:30:23.850Z,15
2017-06-26T04:31:23.216Z,10
2017-06-26T04:32:23.520Z,10
2017-06-26T04:33:23.506Z,15
2017-06-26T04:34:23.501Z,20
2017-06-26T04:35:22.862Z,25
2017-06-26T04:36:23.164Z,25
2017-06-26T04:37:23.785Z,20
2017-06-26T04:38:23.136Z,20
2017-06-26T04:39:22.813Z,25
2017-06-26T04:40:23.163Z,25
2017-06-26T04:41:23.109Z,30
2017-06-26T04:42:23.412Z,35
2017-06-26T04:43:22.845Z,30
2017-06-26T04:44:23.085Z,30
2017-06-26T04:45:23.384Z,35
2017-06-26T04:46:23.358Z,40
2017-06-26T04:47:22.727Z,40
2017-06-26T04:48:23.345Z,40
2017-06-26T04:49:23.331Z,45
2017-06-26T04:50:23.325Z,45
2017-06-26T04:51:23.004Z,50
2017-06-26T04:52:22.988Z,45
2017-06-26T04:53:22.978Z,45
2017-06-26T04:54:22.965Z,45
2017-06-26T04:55:23.268Z,50
2017-06-26T04:56:23.255Z,60
2017-06-26T04:57:22.627Z,60
2017-06-26T04:58:22.928Z,60
2017-06-26T04:59:22.920Z,60
2017-06-26T05:00:23.537Z,55
2017-06-26T05:01:23.200Z,55
2017-06-26T05:02:22.889Z,50
2017-06-26T05:03:22.877Z,55
2017-06-26T05:04:23.180Z,55
2017-06-26T05:05:23.164Z,60
2017-06-26T05:06:23.156Z,60
2017-06-26T05:07:23.463Z,60
2017-06-26T05:08:22.844Z,60
2017-06-26T05:09:22.814Z,60
2017-06-26T05:10:22.813Z,60
2017-06-26T05:11:22.487Z,65
2017-06-26T05:12:23.410Z,65
2017-06-26T05:13:23.406Z,70
2017-06-26T05:14:23.082Z,75
2017-06-26T05:15:23.066Z,75
2017-06-26T05:16:22.737Z,75
2017-06-26T05:17:23.055Z,75
2017-06-26T05:18:22.720Z,75
2017-06-26T05:19:22.714Z,75
2017-06-26T05:20:22.395Z,80
2017-06-26T05:21:22.999Z,85
2017-06-26T05:22:22.701Z,80
2017-06-26T05:23:23.297Z,75
2017-06-26T05:24:22.968Z,80
2017-06-26T05:25:23.015Z,80
2017-06-26T05:26:22.332Z,80
2017-06-26T05:27:22.629Z,75
2017-06-26T05:28:22.322Z,70
2017-06-26T05:29:23.241Z,65
2017-06-26T05:30:22.597Z,70
2017-06-26T05:31:22.592Z,75
2017-06-26T05:32:22.901Z,75
2017-06-26T05:33:22.887Z,70
2017-06-26T05:34:23.194Z,70
2017-06-26T05:35:22.885Z,80
2017-06-26T05:36:23.179Z,80
2017-06-26T05:37:22.843Z,75
2017-06-26T05:38:22.519Z,75
2017-06-26T05:39:22.828Z,70
2017-06-26T05:40:22.700Z,75
2017-06-26T05:41:22.496Z,75
2017-06-26T05:42:22.481Z,80
2017-06-26T05:43:22.471Z,80
2017-06-26T05:44:22.774Z,75
2017-06-26T05:45:22.763Z,70
2017-06-26T05:46:23.068Z,70
2017-06-26T05:47:22.502Z,75
2017-06-26T05:48:23.057Z,90
2017-06-26T05:49:22.732Z,105
2017-06-26T05:50:22.080Z,100
2017-06-26T05:51:22.701Z,90
2017-06-26T05:52:22.374Z,80
2017-06-26T05:53:23.017Z,85
2017-06-26T05:54:22.984Z,90
2017-06-26T05:55:22.662Z,100
2017-06-26T05:56:22.987Z,105
2017-06-26T05:57:22.327Z,110
2017-06-26T05:58:22.631Z,105
2017-06-26T05:59:22.618Z,110
2017-06-26T06:00:22.611Z,115
2017-06-26T06:01:22.288Z,125
2017-06-26T06:02:22.913Z,135
2017-06-26T06:03:22.894Z,145
2017-06-26T06:04:22.273Z,135
2017-06-26T06:05:22.252Z,120
2017-06-26T06:06:22.243Z,105
2017-06-26T06:07:22.554Z,100
2017-06-26T06:08:22.844Z,100
2017-06-26T06:09:22.519Z,105
2017-06-26T06:10:22.204Z,105
2017-06-26T06:11:21.887Z,100
2017-06-26T06:12:22.191Z,95
2017-06-26T06:13:22.489Z,90
2017-06-26T06:14:22.169Z,85
2017-06-26T06:15:22.776Z,85
2017-06-26T06:16:22.457Z,85
2017-06-26T06:17:22.130Z,90
2017-06-26T06:18:22.741Z,95
2017-06-26T06:19:22.423Z,95
2017-06-26T06:20:22.727Z,85
2017-06-26T06:21:22.093Z,80
2017-06-26T06:22:22.397Z,75
2017-06-26T06:23:22.394Z,80
2017-06-26T06:24:22.387Z,75
2017-06-26T06:25:22.697Z,65
2017-06-26T06:26:22.667Z,55
2017-06-26T06:27:22.342Z,55
2017-06-26T06:28:22.043Z,50
2017-06-26T06:29:22.044Z,50
2017-06-26T06:30:22.015Z,55
2017-06-26T06:31:21.680Z,55
2017-06-26T06:32:22.606Z,50
2017-06-26T06:33:21.686Z,50
2017-06-26T06:34:22.274Z,45
2017-06-26T06:35:21.983Z,45
2017-06-26T06:36:22.598Z,45
2017-06-26T06:37:21.629Z,45
2017-06-26T06:38:21.919Z,45
2017-06-26T06:39:21.596Z,45
2017-06-26T06:40:22.220Z,40
2017-06-26T06:41:22.529Z,45
2017-06-26T06:42:21.896Z,55
2017-06-26T06:43:21.879Z,60
2017-06-26T06:44:21.562Z,75
2017-06-26T06:45:22.508Z,75
2017-06-26T06:46:22.159Z,60
2017-06-26T06:47:22.460Z,45
2017-06-26T06:48:21.513Z,55
2017-06-26T06:49:22.134Z,70
2017-06-26T06:50:22.161Z,100
2017-06-26T06:51:22.107Z,125
2017-06-26T06:52:22.405Z,130
2017-06-26T06:53:21.474Z,135
2017-06-26T06:54:22.396Z,130
2017-06-26T06:55:22.072Z,130
2017-06-26T06:56:22.374Z,155
2017-06-26T06:57:21.735Z,165
2017-06-26T06:58:22.357Z,160
2017-06-26T06:59:22.338Z,165
2017-06-26T07:00:21.705Z,165
2017-06-26T07:01:22.011Z,130
2017-06-26T07:02:21.695Z,95
2017-06-26T07:03:22.303Z,70
2017-06-26T07:04:21.704Z,60
2017-06-26T07:05:21.348Z,45
2017-06-26T07:06:21.342Z,55
2017-06-26T07:07:21.639Z,65
2017-06-26T07:08:21.633Z,75
2017-06-26T07:09:21.626Z,90
2017-06-26T07:10:21.609Z,125
2017-06-26T07:11:21.601Z,160
2017-06-26T07:12:21.591Z,185
2017-06-26T07:13:21.613Z,190
2017-06-26T07:14:21.884Z,210
2017-06-26T07:15:21.563Z,205
2017-06-26T07:16:21.864Z,190
2017-06-26T07:17:21.859Z,175
2017-06-26T07:18:21.850Z,200
2017-06-26T07:19:22.152Z,210
2017-06-26T07:20:22.141Z,170
2017-06-26T07:21:21.512Z,175
2017-06-26T07:22:21.185Z,175
2017-06-26T07:23:22.138Z,210
2017-06-26T07:24:21.489Z,255
2017-06-26T07:25:21.477Z,320
2017-06-26T07:26:21.826Z,295
2017-06-26T07:27:21.791Z,270
2017-06-26T07:28:21.128Z,290
2017-06-26T07:29:21.433Z,290
2017-06-26T07:30:21.428Z,385
2017-06-26T07:31:22.094Z,440
2017-06-26T07:32:22.034Z,360
2017-06-26T07:33:21.429Z,255
2017-06-26T07:34:22.039Z,250
2017-06-26T07:35:22.014Z,245
2017-06-26T07:36:21.061Z,335
2017-06-26T07:37:21.370Z,250
2017-06-26T07:38:21.361Z,945
2017-06-26T07:39:21.712Z,240
2017-06-26T07:40:21.866Z,285
2017-06-26T07:41:21.961Z,565
2017-06-26T07:42:21.328Z,1015
2017-06-26T07:43:21.946Z,520
2017-06-26T07:44:21.315Z,1400
2017-06-26T07:45:21.620Z,1435
2017-06-26T07:46:21.617Z,825
2017-06-26T07:47:21.605Z,1205
2017-06-26T07:48:20.986Z,1455
2017-06-26T07:49:21.596Z,370
2017-06-26T07:50:21.278Z,1205
2017-06-26T07:51:21.588Z,185
2017-06-26T07:52:21.590Z,280
2017-06-26T07:53:21.590Z,900
2017-06-26T07:54:21.884Z,770
2017-06-26T07:55:21.254Z,230
2017-06-26T07:56:21.294Z,1450
2017-06-26T07:57:20.927Z,1405
2017-06-26T07:58:20.929Z,970
2017-06-26T07:59:21.874Z,235
2017-06-26T08:00:21.273Z,1305
2017-06-26T08:01:21.843Z,1350
2017-06-26T08:02:21.213Z,1470
2017-06-26T08:03:21.521Z,1585
2017-06-26T08:04:21.217Z,1335
2017-06-26T08:05:20.574Z,455
2017-06-26T08:06:20.617Z,225
2017-06-26T08:07:21.505Z,1270
2017-06-26T08:08:21.503Z,1490
2017-06-26T08:09:21.234Z,845
2017-06-26T08:10:21.186Z,275
2017-06-26T08:11:20.863Z,275
2017-06-26T08:12:20.863Z,265
2017-06-26T08:13:21.852Z,255
2017-06-26T08:14:20.853Z,145
2017-06-26T08:15:21.787Z,120
2017-06-26T08:16:21.819Z,155
2017-06-26T08:17:20.876Z,210
2017-06-26T08:18:20.838Z,255
2017-06-26T08:19:21.144Z,380
2017-06-26T08:20:20.832Z,470
2017-06-26T08:21:21.763Z,305
2017-06-26T08:22:21.451Z,180
2017-06-26T08:23:20.822Z,325
2017-06-26T08:24:21.455Z,315
2017-06-26T08:25:21.437Z,365
2017-06-26T08:26:21.430Z,1310
2017-06-26T08:27:21.112Z,195
2017-06-26T08:28:21.420Z,120
2017-06-26T08:29:21.115Z,130
2017-06-26T08:30:20.808Z,155
2017-06-26T08:31:21.722Z,150
2017-06-26T08:32:21.762Z,120
2017-06-26T08:33:21.444Z,95
2017-06-26T08:34:21.130Z,75
2017-06-26T08:35:21.075Z,75
2017-06-26T08:36:20.748Z,95
2017-06-26T08:37:21.081Z,135
2017-06-26T08:38:20.793Z,190
2017-06-26T08:39:21.410Z,515
2017-06-26T08:40:20.729Z,1765
2017-06-26T08:41:21.351Z,1900
2017-06-26T08:42:21.043Z,1965
2017-06-26T08:43:21.651Z,1950
2017-06-26T08:44:21.343Z,1850
2017-06-26T08:45:21.334Z,1795
2017-06-26T08:46:21.338Z,1815
2017-06-26T08:47:21.633Z,1765
2017-06-26T08:48:21.636Z,1780
2017-06-26T08:49:21.312Z,1800
2017-06-26T08:50:21.381Z,1455
2017-06-26T08:51:20.684Z,1650
2017-06-26T08:52:21.309Z,855
2017-06-26T08:53:20.985Z,1110
2017-06-26T08:54:21.306Z,1355
2017-06-26T08:55:21.296Z,1010
2017-06-26T08:56:21.305Z,210
2017-06-26T08:57:21.292Z,135
2017-06-26T08:58:21.608Z,130
2017-06-26T08:59:21.340Z,130
2017-06-26T09:00:21.289Z,125
2017-06-26T09:01:21.282Z,180
2017-06-26T09:02:21.017Z,260
2017-06-26T09:03:21.640Z,400
2017-06-26T09:04:20.962Z,895
2017-06-26T09:05:21.597Z,435
2017-06-26T09:06:21.572Z,510
2017-06-26T09:07:21.578Z,585
2017-06-26T09:08:20.629Z,1405
2017-06-26T09:09:21.255Z,1345
2017-06-26T09:10:21.252Z,1345
2017-06-26T09:11:21.563Z,175
2017-06-26T09:12:21.270Z,145
2017-06-26T09:13:20.924Z,160
2017-06-26T09:14:21.233Z,1920
2017-06-26T09:15:20.605Z,1980
2017-06-26T09:16:21.220Z,2055
2017-06-26T09:17:21.227Z,2025
2017-06-26T09:18:21.539Z,2040
2017-06-26T09:19:20.903Z,2100
2017-06-26T09:20:21.526Z,2190
2017-06-26T09:21:20.901Z,2255
2017-06-26T09:22:21.215Z,1780
2017-06-26T09:23:21.619Z,235
2017-06-26T09:24:20.901Z,190
2017-06-26T09:25:21.540Z,145
2017-06-26T09:26:21.536Z,125
2017-06-26T09:27:21.204Z,135
2017-06-26T09:28:20.900Z,200
2017-06-26T09:29:21.196Z,2130
2017-06-26T09:30:21.205Z,2100
2017-06-26T09:31:21.191Z,2080
2017-06-26T09:32:21.502Z,2130
2017-06-26T09:33:21.192Z,2215
2017-06-26T09:34:20.876Z,2310
2017-06-26T09:35:21.190Z,2280
2017-06-26T09:36:21.188Z,835
2017-06-26T09:37:20.891Z,275
2017-06-26T09:38:21.494Z,2290
2017-06-26T09:39:20.869Z,290
2017-06-26T09:40:21.492Z,2270
2017-06-26T09:41:20.869Z,2400
2017-06-26T09:42:20.877Z,2005
2017-06-26T09:43:21.499Z,2490
2017-06-26T09:44:21.244Z,450
2017-06-26T09:45:20.887Z,1210
2017-06-26T09:46:21.194Z,310
2017-06-26T09:47:20.567Z,345
2017-06-26T09:48:20.548Z,2365
2017-06-26T09:49:21.185Z,335
2017-06-26T09:50:21.177Z,240
2017-06-26T09:51:20.863Z,220
2017-06-26T09:52:20.864Z,260
2017-06-26T09:53:20.575Z,2275
2017-06-26T09:54:20.868Z,2295
2017-06-26T09:55:21.169Z,2355
2017-06-26T09:56:21.175Z,320
2017-06-26T09:57:20.867Z,290
2017-06-26T09:58:21.175Z,360
2017-06-26T09:59:20.870Z,345
2017-06-26T10:00:20.851Z,160
2017-06-26T10:01:20.535Z,150
2017-06-26T10:02:21.175Z,150
2017-06-26T10:03:21.156Z,160
2017-06-26T10:04:20.534Z,190
2017-06-26T10:05:20.525Z,230
2017-06-26T10:06:21.459Z,2205
2017-06-26T10:07:21.186Z,1020
2017-06-26T10:08:20.520Z,2330
2017-06-26T10:09:21.142Z,2450
2017-06-26T10:10:21.180Z,1700
2017-06-26T10:11:20.541Z,340
2017-06-26T10:12:20.820Z,390
2017-06-26T10:13:20.521Z,1235
2017-06-26T10:14:20.821Z,520
2017-06-26T10:15:20.507Z,390
2017-06-26T10:16:21.466Z,255
2017-06-26T10:17:20.560Z,255
2017-06-26T10:18:21.127Z,305
2017-06-26T10:19:21.141Z,365
2017-06-26T10:20:21.119Z,2260
2017-06-26T10:21:21.116Z,410
2017-06-26T10:22:21.109Z,570
2017-06-26T10:23:20.181Z,2425
2017-06-26T10:24:20.476Z,2360
2017-06-26T10:25:20.798Z,2385
2017-06-26T10:26:20.797Z,2375
2017-06-26T10:27:20.476Z,2355
2017-06-26T10:28:20.795Z,2385
2017-06-26T10:29:21.105Z,2550
2017-06-26T10:30:21.418Z,2595
2017-06-26T10:31:21.149Z,2195
2017-06-26T10:32:21.107Z,2415
2017-06-26T10:33:20.781Z,2370
2017-06-26T10:34:21.104Z,860
2017-06-26T10:35:21.415Z,425
2017-06-26T10:36:20.802Z,520
2017-06-26T10:37:20.474Z,445
2017-06-26T10:38:20.804Z,460
2017-06-26T10:39:20.792Z,2355
2017-06-26T10:40:20.477Z,405
2017-06-26T10:41:20.802Z,1940
2017-06-26T10:42:20.789Z,2280
2017-06-26T10:43:21.103Z,2090
2017-06-26T10:44:21.105Z,2345
2017-06-26T10:45:21.104Z,2320
2017-06-26T10:46:21.114Z,2290
2017-06-26T10:47:21.420Z,2300
2017-06-26T10:48:20.806Z,2245
2017-06-26T10:49:21.113Z,2245
2017-06-26T10:50:21.420Z,2240
2017-06-26T10:51:20.795Z,2235
2017-06-26T10:52:20.501Z,2225
2017-06-26T10:53:20.813Z,2275
2017-06-26T10:54:20.815Z,2275
2017-06-26T10:55:20.816Z,2275
2017-06-26T10:56:21.121Z,2295
2017-06-26T10:57:20.818Z,2265
2017-06-26T10:58:20.519Z,2305
2017-06-26T10:59:21.146Z,2360
2017-06-26T11:00:21.134Z,2445
2017-06-26T11:01:20.833Z,920
2017-06-26T11:02:21.140Z,435
2017-06-26T11:03:21.142Z,370
2017-06-26T11:04:21.148Z,325
2017-06-26T11:05:20.521Z,435
2017-06-26T11:06:21.144Z,1120
2017-06-26T11:07:21.145Z,2305
2017-06-26T11:08:21.154Z,2160
2017-06-26T11:09:21.151Z,2165
2017-06-26T11:10:20.841Z,2275
2017-06-26T11:11:21.158Z,570
2017-06-26T11:12:21.200Z,2335
2017-06-26T11:13:20.536Z,2055
2017-06-26T11:14:21.481Z,2305
2017-06-26T11:15:21.159Z,2455
2017-06-26T11:16:20.864Z,390
2017-06-26T11:17:21.276Z,345
2017-06-26T11:18:20.868Z,390
2017-06-26T11:19:21.492Z,2390
2017-06-26T11:20:20.567Z,470
2017-06-26T11:21:20.926Z,2350
2017-06-26T11:22:20.880Z,2345
2017-06-26T11:23:21.497Z,2350
2017-06-26T11:24:20.915Z,570
2017-06-26T11:25:21.194Z,2440
2017-06-26T11:26:20.571Z,2390
2017-06-26T11:27:20.885Z,2400
2017-06-26T11:28:21.199Z,1360
2017-06-26T11:29:20.892Z,2365
2017-06-26T11:30:20.915Z,2445
2017-06-26T11:31:20.897Z,2130
2017-06-26T11:32:21.221Z,495
2017-06-26T11:33:20.899Z,500
2017-06-26T11:34:20.598Z,2415
2017-06-26T11:35:21.220Z,2470
2017-06-26T11:36:20.912Z,2550
2017-06-26T11:37:21.541Z,2530
2017-06-26T11:38:20.614Z,2525
2017-06-26T11:39:21.235Z,2535
2017-06-26T11:40:21.440Z,2535
2017-06-26T11:41:20.614Z,2565
2017-06-26T11:42:20.930Z,2385
2017-06-26T11:43:21.253Z,2475
2017-06-26T11:44:21.566Z,2400
2017-06-26T11:45:20.945Z,2325
2017-06-26T11:46:21.576Z,2305
2017-06-26T11:47:21.273Z,2300
2017-06-26T11:48:21.266Z,1085
2017-06-26T11:49:20.962Z,2150
2017-06-26T11:50:20.961Z,2125
2017-06-26T11:51:21.608Z,2220
2017-06-26T11:52:21.020Z,2170
2017-06-26T11:53:20.967Z,575
2017-06-26T11:54:20.657Z,2290
2017-06-26T11:55:21.294Z,2450
2017-06-26T11:56:20.986Z,2385
2017-06-26T11:57:20.713Z,570
2017-06-26T11:58:21.306Z,920
2017-06-26T11:59:21.624Z,2000
2017-06-26T12:00:21.004Z,2495
2017-06-26T12:01:21.315Z,2510
2017-06-26T12:02:20.379Z,1635
2017-06-26T12:03:21.635Z,500
2017-06-26T12:04:21.635Z,2235
2017-06-26T12:05:21.637Z,2645
2017-06-26T12:06:20.711Z,690
2017-06-26T12:07:21.340Z,1240
2017-06-26T12:08:20.716Z,2485
2017-06-26T12:09:21.336Z,2365
2017-06-26T12:10:20.721Z,2005
2017-06-26T12:11:21.676Z,1615
2017-06-26T12:12:21.352Z,535
2017-06-26T12:13:20.727Z,2425
2017-06-26T12:14:21.671Z,2365
2017-06-26T12:15:21.051Z,2385
2017-06-26T12:16:21.671Z,2395
2017-06-26T12:17:21.054Z,2420
2017-06-26T12:18:21.074Z,415
2017-06-26T12:19:20.749Z,2350
2017-06-26T12:20:21.075Z,2255
2017-06-26T12:21:21.375Z,2180
2017-06-26T12:22:21.694Z,2175
2017-06-26T12:23:21.389Z,2170
2017-06-26T12:24:21.071Z,2200
2017-06-26T12:25:21.082Z,2210
2017-06-26T12:26:21.100Z,2170
2017-06-26T12:27:21.400Z,2205
2017-06-26T12:28:21.401Z,2285
2017-06-26T12:29:21.401Z,2400
2017-06-26T12:30:21.406Z,2040
2017-06-26T12:31:21.413Z,2455
2017-06-26T12:32:21.414Z,2425
2017-06-26T12:33:21.414Z,2445
2017-06-26T12:34:21.428Z,2490
2017-06-26T12:35:21.109Z,2470
2017-06-26T12:36:21.122Z,2315
2017-06-26T12:37:21.121Z,2155
2017-06-26T12:38:20.810Z,2075
2017-06-26T12:39:21.132Z,2125
2017-06-26T12:40:21.137Z,2250
2017-06-26T12:41:20.829Z,2380
2017-06-26T12:42:20.838Z,2400
2017-06-26T12:43:20.857Z,2345
2017-06-26T12:44:21.780Z,2315
2017-06-26T12:45:21.464Z,295
2017-06-26T12:46:21.159Z,285
2017-06-26T12:47:21.171Z,305
2017-06-26T12:48:21.511Z,535
2017-06-26T12:49:21.190Z,2390
2017-06-26T12:50:20.548Z,2255
2017-06-26T12:51:21.489Z,2330
2017-06-26T12:52:20.866Z,2350
2017-06-26T12:53:21.525Z,940
2017-06-26T12:54:20.879Z,375
2017-06-26T12:55:21.501Z,415
2017-06-26T12:56:21.191Z,430
2017-06-26T12:57:21.195Z,415
2017-06-26T12:58:21.207Z,2275
2017-06-26T12:59:21.514Z,2260
2017-06-26T13:00:20.883Z,2280
2017-06-26T13:01:21.826Z,2320
2017-06-26T13:02:21.522Z,2300
2017-06-26T13:03:21.519Z,2275
2017-06-26T13:04:21.872Z,2240
2017-06-26T13:05:21.846Z,2260
2017-06-26T13:06:21.881Z,2270
2017-06-26T13:07:21.217Z,2275
2017-06-26T13:08:21.537Z,2290
2017-06-26T13:09:20.919Z,2165
2017-06-26T13:10:21.235Z,2040
2017-06-26T13:11:21.558Z,2225
2017-06-26T13:12:20.929Z,1985
2017-06-26T13:13:21.238Z,2125
2017-06-26T13:14:21.560Z,1790
2017-06-26T13:15:20.936Z,1750
2017-06-26T13:16:21.248Z,2070
2017-06-26T13:17:21.579Z,1820
2017-06-26T13:18:21.260Z,355
2017-06-26T13:19:21.583Z,510
2017-06-26T13:20:21.893Z,410
2017-06-26T13:21:20.957Z,385
2017-06-26T13:22:21.019Z,470
2017-06-26T13:23:21.913Z,375
2017-06-26T13:24:21.592Z,465
2017-06-26T13:25:21.916Z,790
2017-06-26T13:26:21.288Z,2280
2017-06-26T13:27:21.643Z,2265
2017-06-26T13:28:21.603Z,2285
2017-06-26T13:29:20.979Z,345
2017-06-26T13:30:20.987Z,405
2017-06-26T13:31:21.611Z,280
2017-06-26T13:32:21.296Z,290
2017-06-26T13:33:21.978Z,330
2017-06-26T13:34:21.612Z,295
2017-06-26T13:35:21.301Z,280
2017-06-26T13:36:21.298Z,265
2017-06-26T13:37:21.300Z,285
2017-06-26T13:38:21.613Z,280
2017-06-26T13:39:21.937Z,330
2017-06-26T13:40:21.507Z,785
2017-06-26T13:41:21.633Z,435
2017-06-26T13:42:21.352Z,1995
2017-06-26T13:43:21.305Z,2110
2017-06-26T13:44:21.307Z,2100
2017-06-26T13:45:21.926Z,2080
2017-06-26T13:46:21.611Z,2170
2017-06-26T13:47:21.298Z,1460
2017-06-26T13:48:21.310Z,420
2017-06-26T13:49:21.651Z,1930
2017-06-26T13:50:21.302Z,2010
2017-06-26T13:51:21.929Z,2085
2017-06-26T13:52:21.929Z,2075
2017-06-26T13:53:21.621Z,1830
2017-06-26T13:54:21.303Z,1060
2017-06-26T13:55:21.315Z,445
2017-06-26T13:56:21.625Z,1135
2017-06-26T13:57:21.314Z,1520
2017-06-26T13:58:21.313Z,1985
2017-06-26T13:59:21.941Z,2020
2017-06-26T14:00:21.941Z,2015